Time;durP1;ratioP1;P1;durP2;ratioP2;P2;SDS_P1;SDS_P2;PMS_P1;PMS_P2;Temp;Humidity;BMP_temperature;BMP_pressure;BME280_temperature;BME280_humidity;BME280_pressure;Samples;Min_cycle;Max_cycle;Signal;HPM_P1;HPM_P2
2024/03/22 00:00:16;;;;;;;0.30;0.30;;;14.10;74.70;;;;;;4989494;28;20642;-75
2024/03/22 00:02:44;;;;;;;0.20;0.20;;;14.10;74.60;;;;;;5013298;28;20635;-75
2024/03/22 00:05:10;;;;;;;0.20;0.20;;;14.10;74.60;;;;;;4995136;28;20049;-77
2024/03/22 00:07:41;;;;;;;0.30;0.30;;;14.10;74.40;;;;;;4997463;28;20412;-76
2024/03/22 00:10:08;;;;;;;0.20;0.20;;;14.10;74.30;;;;;;5005594;28;20053;-76
2024/03/22 00:12:36;;;;;;;0.20;0.20;;;14.10;74.30;;;;;;5010029;28;20049;-71
2024/03/22 00:15:04;;;;;;;0.22;0.22;;;14.10;74.30;;;;;;5010039;28;20119;-73
2024/03/22 00:17:33;;;;;;;0.20;0.20;;;14.10;74.50;;;;;;5013512;28;20087;-72
2024/03/22 00:20:01;;;;;;;0.20;0.20;;;14.10;74.30;;;;;;5001127;28;20140;-73
2024/03/22 00:22:29;;;;;;;0.20;0.20;;;14.00;74.20;;;;;;5012423;28;20419;-72
2024/03/22 00:24:57;;;;;;;0.20;0.20;;;14.00;74.10;;;;;;4992320;28;20504;-72
2024/03/22 00:27:29;;;;;;;0.20;0.20;;;14.00;74.00;;;;;;4994295;28;20053;-75
2024/03/22 00:29:56;;;;;;;0.20;0.20;;;14.00;74.00;;;;;;5008352;28;20056;-71
2024/03/22 00:32:26;;;;;;;0.30;0.30;;;13.90;73.80;;;;;;5008155;28;20049;-72
2024/03/22 00:34:55;;;;;;;0.25;0.25;;;13.90;74.30;;;;;;5012380;28;20073;-71
2024/03/22 00:37:24;;;;;;;0.20;0.20;;;13.80;73.50;;;;;;5011137;28;20049;-71
2024/03/22 00:39:53;;;;;;;0.30;0.30;;;13.70;73.50;;;;;;5007420;28;20054;-70
2024/03/22 00:42:23;;;;;;;0.22;0.22;;;13.60;73.60;;;;;;5008247;28;20156;-71
2024/03/22 00:44:50;;;;;;;0.10;0.10;;;13.60;73.50;;;;;;4995069;28;20050;-72
2024/03/22 00:47:18;;;;;;;0.22;0.22;;;13.50;73.20;;;;;;4995137;28;20052;-71
2024/03/22 00:49:48;;;;;;;0.28;0.28;;;13.50;73.10;;;;;;5010097;28;20133;-72
2024/03/22 00:52:17;;;;;;;0.20;0.20;;;13.40;72.90;;;;;;5003774;28;21037;-71
2024/03/22 00:54:43;;;;;;;0.20;0.20;;;13.30;73.00;;;;;;5012690;28;20078;-72
2024/03/22 00:57:11;;;;;;;0.20;0.20;;;13.30;73.10;;;;;;5011044;28;20058;-72
2024/03/22 00:59:43;;;;;;;0.30;0.30;;;13.20;73.90;;;;;;4996625;28;20057;-71
2024/03/22 01:02:12;;;;;;;0.20;0.20;;;13.20;73.20;;;;;;5002411;28;20057;-71
2024/03/22 01:04:41;;;;;;;0.20;0.20;;;13.10;73.00;;;;;;5012308;28;20131;-71
2024/03/22 01:07:09;;;;;;;0.30;0.30;;;13.10;72.90;;;;;;5009098;28;20091;-71
2024/03/22 01:09:35;;;;;;;0.40;0.40;;;13.10;73.00;;;;;;4992238;28;20049;-71
2024/03/22 01:12:04;;;;;;;0.30;0.30;;;13.00;73.00;;;;;;4996709;28;20057;-70
2024/03/22 01:14:30;;;;;;;0.20;0.20;;;13.00;73.00;;;;;;5001525;28;20439;-76
2024/03/22 01:17:00;;;;;;;0.30;0.30;;;13.00;72.90;;;;;;5011101;28;20057;-71
2024/03/22 01:19:26;;;;;;;0.20;0.20;;;12.90;72.80;;;;;;5010603;28;20072;-73
2024/03/22 01:21:54;;;;;;;0.20;0.20;;;12.90;72.90;;;;;;5007114;28;20135;-74
2024/03/22 01:24:23;;;;;;;0.30;0.30;;;12.90;73.00;;;;;;5009922;28;20119;-76
2024/03/22 01:26:51;;;;;;;0.20;0.20;;;12.80;73.00;;;;;;5008965;28;20167;-70
2024/03/22 01:29:22;;;;;;;0.30;0.30;;;12.80;72.90;;;;;;5011172;28;20060;-76
2024/03/22 01:31:51;;;;;;;0.30;0.30;;;12.80;72.90;;;;;;4994179;28;20361;-75
2024/03/22 01:34:19;;;;;;;0.32;0.32;;;12.70;73.00;;;;;;5007117;28;20084;-71
2024/03/22 01:36:47;;;;;;;0.25;0.25;;;12.70;73.00;;;;;;5005412;28;20569;-71
2024/03/22 01:39:14;;;;;;;0.20;0.20;;;12.70;73.10;;;;;;5011347;28;20073;-70
2024/03/22 01:41:41;;;;;;;0.30;0.30;;;12.60;74.10;;;;;;5009006;28;20424;-70
2024/03/22 01:44:08;;;;;;;0.20;0.20;;;12.60;74.00;;;;;;5005357;28;20053;-72
2024/03/22 01:46:35;;;;;;;0.20;0.20;;;12.60;73.20;;;;;;4989491;28;20049;-73
2024/03/22 01:49:02;;;;;;;0.20;0.20;;;12.60;73.20;;;;;;5011943;28;20068;-70
2024/03/22 01:51:30;;;;;;;0.30;0.30;;;12.50;73.20;;;;;;5010827;28;20069;-70
2024/03/22 01:53:59;;;;;;;0.20;0.20;;;12.50;73.10;;;;;;5006148;28;20060;-70
2024/03/22 01:56:25;;;;;;;0.20;0.20;;;12.50;73.20;;;;;;5007057;28;20053;-73
2024/03/22 01:58:53;;;;;;;0.20;0.20;;;12.50;73.10;;;;;;5011503;28;20065;-72
2024/03/22 02:01:20;;;;;;;0.25;0.25;;;12.50;73.10;;;;;;4991017;28;20053;-69
2024/03/22 02:03:47;;;;;;;0.30;0.30;;;12.50;73.10;;;;;;4994085;28;20473;-70
2024/03/22 02:06:14;;;;;;;0.30;0.30;;;12.50;73.10;;;;;;5002755;28;20129;-72
2024/03/22 02:08:44;;;;;;;0.30;0.30;;;12.50;73.10;;;;;;5007364;28;20058;-70
2024/03/22 02:11:10;;;;;;;0.20;0.20;;;12.40;72.90;;;;;;5007286;28;20150;-71
2024/03/22 02:13:37;;;;;;;0.20;0.20;;;12.40;72.80;;;;;;5009972;28;20046;-69
2024/03/22 02:16:04;;;;;;;0.30;0.30;;;12.40;72.70;;;;;;5000802;28;20516;-71
2024/03/22 02:18:32;;;;;;;0.30;0.30;;;12.40;72.60;;;;;;5013463;28;20052;-69
2024/03/22 02:20:58;;;;;;;0.30;0.30;;;12.30;72.60;;;;;;5008710;28;20407;-69
2024/03/22 02:23:33;;;;;;;0.30;0.30;;;12.30;72.40;;;;;;5008525;28;20092;-70
2024/03/22 02:26:00;;;;;;;0.30;0.30;;;12.20;72.40;;;;;;5004833;28;20050;-69
2024/03/22 02:28:27;;;;;;;0.30;0.30;;;12.20;72.40;;;;;;5004638;28;20045;-70
2024/03/22 02:30:53;;;;;;;0.20;0.20;;;12.20;72.50;;;;;;5028716;28;20072;-70
2024/03/22 02:33:21;;;;;;;0.20;0.20;;;12.10;72.50;;;;;;5007315;28;20689;-70
2024/03/22 02:35:48;;;;;;;0.30;0.30;;;12.10;72.60;;;;;;5011192;28;20140;-70
2024/03/22 02:38:15;;;;;;;0.20;0.20;;;12.10;72.60;;;;;;5000479;28;20217;-71
2024/03/22 02:40:43;;;;;;;0.20;0.20;;;12.00;72.60;;;;;;5016260;28;20064;-71
2024/03/22 02:43:10;;;;;;;0.32;0.32;;;12.00;72.70;;;;;;5010348;28;20065;-69
2024/03/22 02:45:37;;;;;;;0.30;0.30;;;12.00;72.70;;;;;;5010841;28;20057;-69
2024/03/22 02:48:05;;;;;;;0.20;0.20;;;12.00;72.50;;;;;;5007773;28;20050;-71
2024/03/22 02:50:33;;;;;;;0.38;0.38;;;12.00;72.50;;;;;;5028865;28;20237;-70
2024/03/22 02:53:00;;;;;;;0.30;0.30;;;12.00;72.40;;;;;;5011469;28;20051;-69
2024/03/22 02:55:27;;;;;;;0.30;0.30;;;11.90;72.70;;;;;;5014762;28;20053;-73
2024/03/22 02:57:58;;;;;;;0.40;0.40;;;11.90;72.80;;;;;;5014250;28;20065;-71
2024/03/22 03:00:26;;;;;;;0.30;0.30;;;11.90;73.00;;;;;;4998560;28;20060;-72
2024/03/22 03:02:53;;;;;;;0.30;0.30;;;11.90;73.10;;;;;;5014620;28;20060;-72
2024/03/22 03:05:19;;;;;;;0.30;0.30;;;11.90;73.00;;;;;;5016147;28;20049;-70
2024/03/22 03:07:47;;;;;;;0.30;0.30;;;11.90;72.90;;;;;;4996174;28;20076;-70
2024/03/22 03:10:13;;;;;;;0.40;0.40;;;11.90;72.80;;;;;;5001113;28;20037;-74
2024/03/22 03:12:41;;;;;;;0.32;0.32;;;11.80;72.70;;;;;;5015294;28;20895;-74
2024/03/22 03:15:09;;;;;;;0.30;0.30;;;11.80;72.70;;;;;;4996611;28;20045;-74
2024/03/22 03:17:37;;;;;;;0.30;0.30;;;11.80;73.40;;;;;;4996052;28;20379;-73
2024/03/22 03:20:07;;;;;;;0.30;0.30;;;11.80;72.90;;;;;;5006702;28;20063;-73
2024/03/22 03:22:35;;;;;;;0.40;0.40;;;11.80;72.90;;;;;;4999299;28;20073;-74
2024/03/22 03:25:02;;;;;;;0.30;0.30;;;11.70;72.60;;;;;;5014964;28;20123;-70
2024/03/22 03:27:30;;;;;;;0.30;0.30;;;11.70;72.70;;;;;;5016231;28;20045;-69
2024/03/22 03:29:56;;;;;;;0.40;0.40;;;11.70;72.90;;;;;;5007563;28;20053;-68
2024/03/22 03:32:25;;;;;;;0.40;0.40;;;11.70;73.00;;;;;;5010304;28;20049;-68
2024/03/22 03:34:51;;;;;;;0.30;0.30;;;11.70;72.90;;;;;;5009226;28;20060;-69
2024/03/22 03:37:18;;;;;;;0.40;0.40;;;11.70;72.90;;;;;;5010899;28;21097;-70
2024/03/22 03:39:44;;;;;;;0.40;0.40;;;11.70;72.90;;;;;;5012261;28;20049;-69
2024/03/22 03:42:12;;;;;;;0.22;0.22;;;11.70;72.90;;;;;;5005026;28;20057;-69
2024/03/22 03:44:38;;;;;;;0.30;0.30;;;11.70;72.80;;;;;;5010347;28;20121;-69
2024/03/22 03:47:06;;;;;;;0.30;0.30;;;11.60;72.70;;;;;;5010625;28;20042;-70
2024/03/22 03:49:34;;;;;;;0.25;0.25;;;11.60;72.60;;;;;;5009700;28;20057;-69
2024/03/22 03:52:01;;;;;;;0.40;0.40;;;11.60;72.80;;;;;;5004070;28;20065;-68
2024/03/22 03:54:27;;;;;;;0.20;0.20;;;11.60;72.80;;;;;;5013629;28;20107;-71
2024/03/22 03:56:55;;;;;;;0.40;0.40;;;11.60;73.00;;;;;;4997784;28;20049;-68
2024/03/22 03:59:21;;;;;;;0.30;0.30;;;11.60;73.00;;;;;;5012336;28;20057;-71
2024/03/22 04:01:49;;;;;;;0.20;0.20;;;11.60;73.00;;;;;;5011646;28;20088;-71
2024/03/22 04:04:15;;;;;;;0.30;0.30;;;11.60;73.10;;;;;;5004727;28;20056;-70
2024/03/22 04:06:45;;;;;;;0.35;0.35;;;11.60;73.00;;;;;;5011732;28;20066;-71
2024/03/22 04:09:11;;;;;;;0.30;0.30;;;11.60;72.80;;;;;;4988933;28;20505;-70
2024/03/22 04:11:39;;;;;;;0.35;0.35;;;11.60;72.80;;;;;;5012904;28;20120;-68
2024/03/22 04:14:05;;;;;;;0.30;0.30;;;11.60;72.80;;;;;;5004745;28;20107;-70
2024/03/22 04:16:34;;;;;;;0.30;0.30;;;11.50;72.80;;;;;;4997522;28;20056;-68
2024/03/22 04:19:00;;;;;;;0.30;0.30;;;11.50;72.80;;;;;;4994205;28;20049;-68
2024/03/22 04:21:27;;;;;;;0.30;0.30;;;11.50;73.10;;;;;;5010353;28;20049;-68
2024/03/22 04:23:55;;;;;;;0.30;0.30;;;11.50;72.80;;;;;;5007862;28;20578;-67
2024/03/22 04:26:23;;;;;;;0.40;0.40;;;11.50;72.80;;;;;;5006756;28;20073;-68
2024/03/22 04:28:50;;;;;;;0.38;0.38;;;11.50;72.80;;;;;;5012094;28;20056;-69
2024/03/22 04:31:17;;;;;;;0.40;0.40;;;11.50;72.70;;;;;;4994576;28;20049;-68
2024/03/22 04:33:43;;;;;;;0.30;0.30;;;11.40;72.60;;;;;;5008789;28;20060;-69
2024/03/22 04:36:10;;;;;;;0.40;0.40;;;11.40;73.20;;;;;;5002714;28;20053;-69
2024/03/22 04:38:38;;;;;;;0.30;0.30;;;11.40;72.70;;;;;;5008889;28;20061;-69
2024/03/22 04:41:06;;;;;;;0.40;0.40;;;11.40;72.70;;;;;;4995086;28;20073;-67
2024/03/22 04:43:34;;;;;;;0.40;0.40;;;11.40;72.90;;;;;;5009552;28;20519;-73
2024/03/22 04:46:00;;;;;;;0.40;0.40;;;11.40;73.10;;;;;;4985666;28;20045;-69
2024/03/22 04:48:27;;;;;;;0.30;0.30;;;11.40;73.30;;;;;;5010714;28;20080;-68
2024/03/22 04:50:54;;;;;;;0.40;0.40;;;11.40;73.20;;;;;;4992932;28;20153;-69
2024/03/22 04:53:22;;;;;;;0.30;0.30;;;11.40;73.20;;;;;;5011344;28;20045;-70
2024/03/22 04:55:51;;;;;;;0.40;0.40;;;11.40;73.00;;;;;;5010267;28;20057;-71
2024/03/22 04:58:21;;;;;;;0.30;0.30;;;11.40;73.00;;;;;;4989544;28;20103;-70
2024/03/22 05:00:49;;;;;;;0.40;0.40;;;11.40;72.90;;;;;;5010157;28;20419;-69
2024/03/22 05:03:16;;;;;;;0.40;0.40;;;11.40;72.90;;;;;;5009466;28;20081;-69
2024/03/22 05:05:44;;;;;;;0.30;0.30;;;11.40;72.90;;;;;;4999004;28;20056;-69
2024/03/22 05:08:10;;;;;;;0.40;0.40;;;11.30;72.90;;;;;;4989238;28;20057;-68
2024/03/22 05:10:37;;;;;;;0.40;0.40;;;11.30;73.00;;;;;;5015624;28;20057;-69
2024/03/22 05:13:04;;;;;;;0.30;0.30;;;11.40;72.80;;;;;;4995988;28;20049;-71
2024/03/22 05:15:32;;;;;;;0.40;0.40;;;11.30;72.70;;;;;;5013047;28;20053;-68
2024/03/22 05:17:59;;;;;;;0.30;0.30;;;11.40;72.80;;;;;;4988144;28;20060;-68
2024/03/22 05:20:27;;;;;;;0.30;0.30;;;11.40;72.80;;;;;;4996154;28;20046;-68
2024/03/22 05:22:53;;;;;;;0.40;0.40;;;11.40;72.70;;;;;;5008887;28;20053;-69
2024/03/22 05:25:20;;;;;;;0.30;0.30;;;11.40;72.80;;;;;;5011057;28;20129;-68
2024/03/22 05:27:47;;;;;;;0.30;0.30;;;11.40;72.90;;;;;;4991637;28;20111;-69
2024/03/22 05:30:14;;;;;;;0.40;0.40;;;11.40;73.20;;;;;;5004802;28;20539;-69
2024/03/22 05:32:42;;;;;;;0.40;0.40;;;11.50;73.30;;;;;;4993596;28;20037;-71
2024/03/22 05:35:09;;;;;;;0.30;0.30;;;11.50;73.30;;;;;;4991028;28;20049;-71
2024/03/22 05:37:36;;;;;;;0.35;0.35;;;11.50;74.10;;;;;;5008991;28;20045;-68
2024/03/22 05:40:04;;;;;;;0.30;0.30;;;11.60;73.50;;;;;;5003447;28;20153;-68
2024/03/22 05:42:31;;;;;;;0.40;0.40;;;11.60;73.50;;;;;;5006881;28;20609;-69
2024/03/22 05:44:58;;;;;;;0.35;0.35;;;11.70;73.60;;;;;;5009823;28;20057;-70
2024/03/22 05:47:24;;;;;;;0.20;0.20;;;11.70;73.60;;;;;;5007841;28;20049;-68
2024/03/22 05:49:53;;;;;;;0.32;0.32;;;11.80;73.70;;;;;;5009915;28;20084;-71
2024/03/22 05:52:20;;;;;;;0.40;0.40;;;11.80;73.70;;;;;;5003601;28;20099;-68
2024/03/22 05:54:48;;;;;;;0.30;0.30;;;11.90;73.80;;;;;;5010624;28;20148;-69
2024/03/22 05:57:14;;;;;;;0.30;0.30;;;11.90;73.70;;;;;;5005998;28;20049;-68
2024/03/22 05:59:41;;;;;;;0.20;0.20;;;11.90;73.70;;;;;;5011345;28;20061;-69
2024/03/22 06:02:08;;;;;;;0.20;0.20;;;11.90;73.70;;;;;;5000818;28;20096;-68
2024/03/22 06:04:36;;;;;;;0.20;0.20;;;12.00;73.70;;;;;;5008597;28;20065;-68
2024/03/22 06:07:04;;;;;;;0.30;0.30;;;12.00;73.80;;;;;;5010361;28;20508;-55
2024/03/22 06:09:36;;;;;;;0.30;0.30;;;12.10;74.90;;;;;;5006642;28;20131;-58
2024/03/22 06:12:04;;;;;;;0.30;0.30;;;12.40;75.80;;;;;;5001050;28;20080;-55
2024/03/22 06:14:32;;;;;;;0.20;0.20;;;12.70;76.20;;;;;;5007721;28;20068;-54
2024/03/22 06:16:58;;;;;;;0.35;0.35;;;12.90;76.90;;;;;;5013654;28;20060;-57
2024/03/22 06:19:28;;;;;;;0.20;0.20;;;13.10;75.90;;;;;;5008057;28;20140;-62
2024/03/22 06:21:56;;;;;;;0.20;0.20;;;13.20;74.80;;;;;;4977484;28;20052;-62
2024/03/22 06:24:36;;;;;;;0.30;0.30;;;13.20;73.90;;;;;;5009882;28;21732;-63
2024/03/22 06:27:07;;;;;;;0.20;0.20;;;13.10;73.10;;;;;;5009988;28;20049;-67
2024/03/22 06:29:36;;;;;;;0.30;0.30;;;13.10;73.00;;;;;;5013538;28;20852;-62
2024/03/22 06:32:09;;;;;;;0.20;0.20;;;13.00;72.90;;;;;;5006685;28;20049;-63
2024/03/22 06:34:38;;;;;;;0.30;0.30;;;12.90;73.10;;;;;;5009048;28;20634;-65
2024/03/22 06:37:04;;;;;;;0.30;0.30;;;12.90;73.20;;;;;;5010094;28;20703;-64
2024/03/22 06:39:37;;;;;;;0.28;0.28;;;12.90;73.30;;;;;;5012934;28;20062;-62
2024/03/22 06:42:05;;;;;;;0.20;0.20;;;12.90;73.60;;;;;;4989933;28;20189;-64
2024/03/22 06:44:32;;;;;;;0.30;0.30;;;13.00;74.10;;;;;;5007847;28;20615;-61
2024/03/22 06:46:59;;;;;;;17.90;7.68;;;13.20;74.40;;;;;;5011873;28;20574;-64
2024/03/22 06:49:26;;;;;;;29.23;7.28;;;13.30;74.50;;;;;;5008401;28;20069;-64
2024/03/22 06:51:53;;;;;;;13.30;7.28;;;13.40;75.00;;;;;;5012779;28;20065;-64
2024/03/22 06:54:20;;;;;;;14.57;6.38;;;13.60;74.90;;;;;;5009490;28;20057;-60
2024/03/22 06:56:48;;;;;;;14.18;6.70;;;13.80;74.80;;;;;;5010652;28;20053;-65
2024/03/22 06:59:15;;;;;;;19.55;6.82;;;13.90;74.60;;;;;;5010560;28;20081;-61
2024/03/22 07:01:41;;;;;;;22.60;6.55;;;14.00;74.30;;;;;;5013113;28;20052;-62
2024/03/22 07:04:09;;;;;;;13.00;5.10;;;14.10;74.20;;;;;;4992377;28;20559;-60
2024/03/22 07:06:35;;;;;;;16.13;6.00;;;14.20;74.20;;;;;;5013602;28;20069;-60
2024/03/22 07:09:03;;;;;;;8.13;4.25;;;14.20;74.00;;;;;;5011632;28;20148;-60
2024/03/22 07:11:30;;;;;;;18.90;6.68;;;14.30;74.20;;;;;;5010441;28;20060;-60
2024/03/22 07:13:58;;;;;;;11.98;5.57;;;14.50;74.40;;;;;;5006165;28;20141;-60
2024/03/22 07:16:25;;;;;;;12.77;6.38;;;14.60;74.40;;;;;;5009743;28;20042;-60
2024/03/22 07:18:52;;;;;;;14.95;7.10;;;14.70;74.10;;;;;;5040551;28;20146;-62
2024/03/22 07:21:18;;;;;;;17.45;7.10;;;14.90;74.40;;;;;;5014532;28;20073;-61
2024/03/22 07:23:45;;;;;;;14.98;5.25;;;15.00;74.30;;;;;;5012328;28;20065;-60
2024/03/22 07:26:12;;;;;;;14.23;6.85;;;15.20;74.20;;;;;;5002338;28;20053;-59
2024/03/22 07:28:39;;;;;;;11.63;5.85;;;15.40;74.80;;;;;;5007800;28;21018;-60
2024/03/22 07:31:07;;;;;;;14.00;6.10;;;15.60;74.00;;;;;;5012817;28;20056;-62
2024/03/22 07:33:34;;;;;;;17.15;5.97;;;15.70;73.40;;;;;;5010900;28;20065;-61
2024/03/22 07:36:02;;;;;;;21.08;6.38;;;15.90;74.30;;;;;;5002558;28;20049;-62
2024/03/22 07:38:29;;;;;;;14.13;5.68;;;16.10;74.60;;;;;;5012048;28;20069;-60
2024/03/22 07:40:56;;;;;;;17.77;5.93;;;16.40;74.50;;;;;;4998203;28;20515;-61
2024/03/22 07:43:23;;;;;;;10.88;5.10;;;16.60;74.00;;;;;;5012357;28;20083;-63
2024/03/22 07:45:49;;;;;;;12.95;5.60;;;16.70;73.90;;;;;;5009445;28;20139;-58
2024/03/22 07:48:18;;;;;;;23.13;7.95;;;16.90;73.70;;;;;;5004498;28;20380;-60
2024/03/22 07:50:44;;;;;;;16.83;6.15;;;17.20;74.10;;;;;;4986208;28;20189;-63
2024/03/22 07:53:13;;;;;;;14.00;5.80;;;17.30;73.30;;;;;;5010908;28;20054;-61
2024/03/22 07:55:40;;;;;;;12.90;5.28;;;17.60;73.70;;;;;;5011682;28;20108;-65
2024/03/22 07:58:07;;;;;;;13.20;6.60;;;17.90;73.60;;;;;;5004400;28;20049;-63
2024/03/22 08:00:34;;;;;;;13.63;5.68;;;18.00;72.50;;;;;;5013551;28;20538;-62
2024/03/22 08:03:01;;;;;;;16.20;6.63;;;18.20;72.80;;;;;;5012876;28;20076;-61
2024/03/22 08:05:29;;;;;;;9.88;5.28;;;18.40;73.20;;;;;;4996833;28;20132;-61
2024/03/22 08:07:57;;;;;;;15.15;5.93;;;18.70;72.40;;;;;;5007137;28;20064;-59
2024/03/22 08:10:24;;;;;;;23.17;4.38;;;18.90;72.20;;;;;;5010949;28;20151;-63
2024/03/22 08:12:52;;;;;;;13.10;6.15;;;19.20;71.90;;;;;;5011175;28;20077;-66
2024/03/22 08:15:19;;;;;;;14.05;5.75;;;19.30;69.90;;;;;;5010458;28;20144;-62
2024/03/22 08:17:46;;;;;;;10.57;5.93;;;19.30;69.80;;;;;;5012014;28;20041;-61
2024/03/22 08:20:12;;;;;;;13.20;4.80;;;19.30;69.50;;;;;;5004523;28;20861;-62
2024/03/22 08:22:41;;;;;;;8.48;4.93;;;19.30;69.30;;;;;;5007652;28;20061;-64
2024/03/22 08:25:08;;;;;;;15.27;5.25;;;19.40;70.70;;;;;;5013856;28;20049;-65
2024/03/22 08:27:36;;;;;;;10.55;4.22;;;19.50;70.30;;;;;;5011337;28;20092;-61
2024/03/22 08:30:05;;;;;;;12.18;5.78;;;19.70;69.10;;;;;;4999536;28;20049;-63
2024/03/22 08:32:32;;;;;;;9.80;4.93;;;19.70;68.40;;;;;;5010039;28;20064;-63
2024/03/22 08:34:59;;;;;;;9.43;4.90;;;19.80;69.20;;;;;;5011390;28;20515;-62
2024/03/22 08:37:26;;;;;;;13.07;5.60;;;19.90;68.60;;;;;;5011494;28;20042;-66
2024/03/22 08:39:54;;;;;;;12.35;5.82;;;20.10;69.50;;;;;;5011178;28;20054;-63
2024/03/22 08:42:21;;;;;;;14.38;5.07;;;20.50;70.20;;;;;;5008618;28;20053;-63
2024/03/22 08:44:47;;;;;;;12.23;5.45;;;21.10;70.60;;;;;;5008246;28;20121;-61
2024/03/22 08:47:15;;;;;;;11.57;5.13;;;21.50;68.60;;;;;;5013294;28;20060;-64
2024/03/22 08:49:41;;;;;;;10.50;4.93;;;21.80;66.90;;;;;;5011093;28;20041;-63
2024/03/22 08:52:08;;;;;;;15.57;5.50;;;22.00;67.10;;;;;;5004206;28;20115;-64
2024/03/22 08:54:35;;;;;;;11.13;4.43;;;22.00;64.90;;;;;;4992733;28;20053;-63
2024/03/22 08:57:04;;;;;;;10.65;5.05;;;22.00;64.90;;;;;;5009289;28;20053;-64
2024/03/22 08:59:30;;;;;;;14.35;5.30;;;22.10;65.40;;;;;;5008720;28;20093;-64
2024/03/22 09:01:59;;;;;;;9.75;4.47;;;22.30;65.40;;;;;;5000914;28;20519;-61
2024/03/22 09:04:25;;;;;;;11.70;5.35;;;22.50;64.20;;;;;;5007342;28;20057;-62
2024/03/22 09:06:52;;;;;;;16.05;5.32;;;22.50;63.80;;;;;;5007292;28;20049;-64
2024/03/22 09:09:19;;;;;;;9.50;4.07;;;22.50;63.70;;;;;;5009760;28;20084;-63
2024/03/22 09:11:50;;;;;;;11.30;5.07;;;22.50;64.10;;;;;;5008910;28;20060;-63
2024/03/22 09:14:17;;;;;;;13.57;4.47;;;22.60;64.40;;;;;;5003607;28;21563;-62
2024/03/22 09:16:45;;;;;;;10.50;4.72;;;22.70;64.80;;;;;;5013521;28;20061;-62
2024/03/22 09:19:11;;;;;;;11.07;4.97;;;22.90;64.40;;;;;;5008257;28;20111;-64
2024/03/22 09:21:38;;;;;;;11.95;5.32;;;23.30;65.90;;;;;;5010573;28;20408;-62
2024/03/22 09:24:05;;;;;;;12.52;4.63;;;23.60;65.70;;;;;;5000070;28;20136;-61
2024/03/22 09:26:33;;;;;;;11.35;5.07;;;24.00;65.10;;;;;;4994903;28;20053;-64
2024/03/22 09:28:59;;;;;;;10.45;4.97;;;24.30;65.20;;;;;;5007471;28;20111;-64
2024/03/22 09:31:28;;;;;;;12.32;5.00;;;24.80;65.60;;;;;;5004651;28;20057;-62
2024/03/22 09:33:54;;;;;;;8.45;4.13;;;25.60;65.80;;;;;;5003877;28;20067;-61
2024/03/22 09:36:21;;;;;;;15.45;6.35;;;26.60;65.60;;;;;;5007102;28;20127;-61
2024/03/22 09:38:48;;;;;;;9.45;4.68;;;27.70;64.40;;;;;;5008408;28;20065;-64
2024/03/22 09:41:16;;;;;;;19.13;8.10;;;28.60;62.90;;;;;;5011441;28;20077;-60
2024/03/22 09:43:46;;;;;;;13.00;5.82;;;29.50;61.80;;;;;;5009661;28;20049;-67
2024/03/22 09:46:15;;;;;;;6.38;3.47;;;30.30;59.90;;;;;;5006071;28;20411;-64
2024/03/22 09:48:44;;;;;;;8.02;4.88;;;31.00;58.70;;;;;;4991846;28;20067;-62
2024/03/22 09:51:11;;;;;;;6.68;3.83;;;31.30;58.10;;;;;;5017171;28;20058;-63
2024/03/22 09:53:39;;;;;;;18.92;4.82;;;31.70;57.30;;;;;;5013079;28;20049;-65
2024/03/22 09:56:08;;;;;;;11.68;6.38;;;32.20;57.00;;;;;;5009097;28;20119;-64
2024/03/22 09:58:34;;;;;;;7.15;3.75;;;32.80;56.30;;;;;;5014231;28;20271;-64
2024/03/22 10:01:03;;;;;;;5.97;2.97;;;33.20;55.90;;;;;;5014426;28;20053;-64
2024/03/22 10:03:29;;;;;;;6.75;4.05;;;33.50;55.20;;;;;;5001876;28;20049;-63
2024/03/22 10:06:08;;;;;;;8.23;4.30;;;33.70;54.80;;;;;;5011484;28;20595;-63
2024/03/22 10:08:36;;;;;;;8.77;4.45;;;34.10;54.90;;;;;;5016094;28;20053;-66
2024/03/22 10:11:04;;;;;;;8.25;3.20;;;34.70;55.30;;;;;;5013682;28;20053;-64
2024/03/22 10:13:31;;;;;;;9.63;3.63;;;35.20;54.70;;;;;;5011106;28;20062;-62
2024/03/22 10:15:59;;;;;;;14.98;4.20;;;35.50;54.30;;;;;;5007984;28;20081;-62
2024/03/22 10:18:26;;;;;;;6.43;3.50;;;35.80;53.20;;;;;;4996820;28;20439;-63
2024/03/22 10:21:05;;;;;;;6.60;3.30;;;35.90;52.20;;;;;;5003675;28;20516;-66
2024/03/22 10:23:32;;;;;;;8.70;4.28;;;35.80;51.10;;;;;;5013671;28;21281;-63
2024/03/22 10:26:00;;;;;;;12.15;3.95;;;35.80;51.20;;;;;;4988507;28;20045;-65
2024/03/22 10:28:26;;;;;;;4.85;2.90;;;35.90;51.20;;;;;;5012170;28;20077;-63
2024/03/22 10:30:54;;;;;;;8.98;3.15;;;36.30;51.30;;;;;;5012487;28;20479;-63
2024/03/22 10:33:23;;;;;;;6.85;2.88;;;36.50;50.30;;;;;;5013021;28;20080;-64
2024/03/22 10:35:53;;;;;;;6.53;3.15;;;36.60;49.90;;;;;;5011522;28;20061;-67
2024/03/22 10:38:21;;;;;;;6.30;2.70;;;36.60;49.80;;;;;;5007318;28;20086;-64
2024/03/22 10:40:49;;;;;;;9.20;3.75;;;36.70;48.80;;;;;;5011657;28;20138;-63
2024/03/22 10:43:16;;;;;;;6.10;3.20;;;36.70;48.20;;;;;;5010860;28;20049;-68
2024/03/22 10:45:46;;;;;;;8.02;2.72;;;36.80;48.00;;;;;;5007334;28;20592;-63
2024/03/22 10:48:18;;;;;;;7.40;3.65;;;37.10;47.70;;;;;;5007016;28;20045;-67
2024/03/22 10:50:45;;;;;;;8.60;3.83;;;37.30;46.70;;;;;;5008141;28;20144;-63
2024/03/22 10:53:15;;;;;;;9.15;2.60;;;37.30;46.00;;;;;;5015808;28;20504;-64
2024/03/22 10:55:47;;;;;;;7.47;3.40;;;37.00;45.00;;;;;;5014160;28;20132;-64
2024/03/22 10:58:15;;;;;;;4.47;2.80;;;36.00;44.60;;;;;;5002225;28;20383;-64
2024/03/22 11:00:44;;;;;;;5.47;3.00;;;34.40;45.30;;;;;;5010798;28;20209;-62
2024/03/22 11:03:12;;;;;;;7.28;2.97;;;33.70;47.40;;;;;;5012346;28;20053;-66
2024/03/22 11:05:46;;;;;;;8.32;3.80;;;33.80;47.90;;;;;;5012134;28;20335;-64
2024/03/22 11:08:13;;;;;;;10.45;4.20;;;33.80;47.10;;;;;;5002734;28;20327;-63
2024/03/22 11:10:41;;;;;;;8.90;4.07;;;33.20;46.90;;;;;;5011215;28;20061;-65
2024/03/22 11:13:09;;;;;;;9.05;4.43;;;32.90;47.70;;;;;;4996830;28;20064;-66
2024/03/22 11:15:36;;;;;;;4.65;3.00;;;32.90;47.50;;;;;;5010295;28;20061;-63
2024/03/22 11:18:03;;;;;;;4.20;2.88;;;32.60;47.30;;;;;;5008813;28;20101;-62
2024/03/22 11:20:30;;;;;;;7.20;3.45;;;32.00;47.60;;;;;;5012459;28;20057;-61
2024/03/22 11:22:57;;;;;;;10.40;4.70;;;31.30;47.90;;;;;;5010702;28;20049;-63
2024/03/22 11:25:26;;;;;;;8.02;3.95;;;30.20;48.40;;;;;;5014734;28;20053;-63
2024/03/22 11:27:54;;;;;;;5.55;3.58;;;29.30;49.40;;;;;;5011582;28;20057;-66
2024/03/22 11:30:25;;;;;;;6.65;3.45;;;28.50;50.40;;;;;;5006046;28;20057;-65
2024/03/22 11:32:52;;;;;;;9.10;5.28;;;27.70;50.90;;;;;;4992188;28;20071;-64
2024/03/22 11:35:19;;;;;;;10.90;3.88;;;27.00;51.50;;;;;;5010328;28;20096;-67
2024/03/22 11:37:45;;;;;;;9.80;3.97;;;26.40;51.80;;;;;;4992404;28;20045;-64
2024/03/22 11:40:13;;;;;;;8.45;3.30;;;25.90;52.10;;;;;;5003910;28;20064;-64
2024/03/22 11:42:41;;;;;;;6.47;3.80;;;25.40;52.40;;;;;;5009834;28;20050;-67
2024/03/22 11:45:11;;;;;;;6.22;3.45;;;25.10;52.60;;;;;;5010425;28;20111;-64
2024/03/22 11:47:39;;;;;;;17.52;4.50;;;24.80;52.60;;;;;;5009467;28;21004;-65
2024/03/22 11:50:08;;;;;;;10.82;4.20;;;24.60;52.90;;;;;;5004524;28;20061;-65
2024/03/22 11:52:35;;;;;;;14.82;4.70;;;24.50;53.10;;;;;;5008459;28;20076;-64
2024/03/22 11:55:02;;;;;;;15.13;4.65;;;24.40;53.20;;;;;;5012014;28;20061;-63
2024/03/22 11:57:29;;;;;;;14.13;4.78;;;24.40;53.20;;;;;;5008604;28;20081;-64
2024/03/22 12:00:00;;;;;;;8.90;3.63;;;24.40;53.30;;;;;;4987488;28;20041;-62
2024/03/22 12:02:27;;;;;;;9.15;3.95;;;24.50;53.10;;;;;;5008447;28;20065;-66
2024/03/22 12:04:55;;;;;;;7.95;2.90;;;24.70;53.00;;;;;;5010814;28;20060;-63
2024/03/22 12:07:23;;;;;;;9.27;3.70;;;24.70;52.60;;;;;;4993586;28;20065;-64
2024/03/22 12:09:52;;;;;;;4.43;3.00;;;24.80;52.60;;;;;;5011009;28;20045;-64
2024/03/22 12:12:21;;;;;;;6.97;2.25;;;25.10;52.40;;;;;;5004206;28;20944;-64
2024/03/22 12:14:50;;;;;;;3.47;2.17;;;25.30;52.10;;;;;;5010859;28;20511;-63
2024/03/22 12:17:17;;;;;;;3.30;2.15;;;25.50;51.70;;;;;;5010518;28;20108;-63
2024/03/22 12:19:44;;;;;;;5.80;2.05;;;25.60;51.40;;;;;;5010654;28;20045;-63
2024/03/22 12:22:12;;;;;;;13.85;3.80;;;25.70;51.20;;;;;;5004968;28;20476;-63
2024/03/22 12:24:39;;;;;;;4.75;2.22;;;25.90;51.00;;;;;;4993562;28;20118;-63
2024/03/22 12:27:05;;;;;;;5.70;2.05;;;26.10;50.90;;;;;;4992850;28;20077;-63
2024/03/22 12:29:33;;;;;;;8.50;3.05;;;26.20;50.40;;;;;;5004868;28;20061;-65
2024/03/22 12:32:01;;;;;;;21.45;7.25;;;26.20;50.80;;;;;;4993015;28;20056;-66
2024/03/22 12:34:29;;;;;;;32.70;7.90;;;26.20;50.20;;;;;;5006529;28;20071;-64
2024/03/22 12:36:55;;;;;;;6.00;3.00;;;26.20;50.20;;;;;;5014732;28;20057;-64
2024/03/22 12:39:24;;;;;;;6.68;2.83;;;26.20;49.90;;;;;;5008798;28;20057;-65
2024/03/22 12:41:51;;;;;;;14.02;2.67;;;26.10;49.80;;;;;;4992721;28;20069;-65
2024/03/22 12:44:18;;;;;;;4.95;2.10;;;26.10;49.90;;;;;;5004714;28;21343;-64